sensor_id;sensor_type;location;lat;lon;timestamp;P1;durP1;ratioP1;P2;durP2;ratioP2
43345;SDS011;28937;51.160;4.146;2023-11-19T00:00:09;4.05;;;0.93;;
43345;SDS011;28937;51.160;4.146;2023-11-19T00:02:37;6.55;;;1.63;;
43345;SDS011;28937;51.160;4.146;2023-11-19T00:05:04;5.93;;;1.55;;
43345;SDS011;28937;51.160;4.146;2023-11-19T00:07:31;5.70;;;1.20;;
43345;SDS011;28937;51.160;4.146;2023-11-19T00:09:57;5.93;;;1.05;;
43345;SDS011;28937;51.160;4.146;2023-11-19T00:12:22;5.80;;;1.50;;
43345;SDS011;28937;51.160;4.146;2023-11-19T00:14:49;6.65;;;1.58;;
43345;SDS011;28937;51.160;4.146;2023-11-19T00:17:15;5.95;;;1.85;;
43345;SDS011;28937;51.160;4.146;2023-11-19T00:19:41;6.13;;;1.65;;
43345;SDS011;28937;51.160;4.146;2023-11-19T00:22:07;5.78;;;1.30;;
43345;SDS011;28937;51.160;4.146;2023-11-19T00:24:32;4.10;;;1.23;;
43345;SDS011;28937;51.160;4.146;2023-11-19T00:26:58;6.93;;;1.35;;
43345;SDS011;28937;51.160;4.146;2023-11-19T00:29:23;5.80;;;1.35;;
43345;SDS011;28937;51.160;4.146;2023-11-19T00:31:49;6.57;;;1.17;;
43345;SDS011;28937;51.160;4.146;2023-11-19T00:34:15;7.60;;;1.75;;
43345;SDS011;28937;51.160;4.146;2023-11-19T00:36:41;4.05;;;1.60;;
43345;SDS011;28937;51.160;4.146;2023-11-19T00:39:06;8.65;;;1.60;;
43345;SDS011;28937;51.160;4.146;2023-11-19T00:41:32;4.80;;;1.25;;
43345;SDS011;28937;51.160;4.146;2023-11-19T00:43:57;7.75;;;2.38;;
43345;SDS011;28937;51.160;4.146;2023-11-19T00:46:23;10.48;;;1.95;;
43345;SDS011;28937;51.160;4.146;2023-11-19T00:48:49;9.85;;;2.33;;
43345;SDS011;28937;51.160;4.146;2023-11-19T00:51:14;9.40;;;2.92;;
43345;SDS011;28937;51.160;4.146;2023-11-19T00:53:40;15.68;;;2.80;;
43345;SDS011;28937;51.160;4.146;2023-11-19T00:56:05;10.15;;;2.30;;
43345;SDS011;28937;51.160;4.146;2023-11-19T00:58:31;9.50;;;2.47;;
43345;SDS011;28937;51.160;4.146;2023-11-19T01:00:57;7.32;;;1.65;;
43345;SDS011;28937;51.160;4.146;2023-11-19T01:03:23;10.25;;;2.20;;
43345;SDS011;28937;51.160;4.146;2023-11-19T01:05:49;13.90;;;2.88;;
43345;SDS011;28937;51.160;4.146;2023-11-19T01:08:14;10.80;;;2.67;;
43345;SDS011;28937;51.160;4.146;2023-11-19T01:10:41;14.55;;;3.40;;
43345;SDS011;28937;51.160;4.146;2023-11-19T01:13:06;14.60;;;3.38;;
43345;SDS011;28937;51.160;4.146;2023-11-19T01:15:32;15.93;;;3.03;;
43345;SDS011;28937;51.160;4.146;2023-11-19T01:17:58;13.15;;;3.38;;
43345;SDS011;28937;51.160;4.146;2023-11-19T01:20:23;15.93;;;3.72;;
43345;SDS011;28937;51.160;4.146;2023-11-19T01:22:50;16.17;;;3.55;;
43345;SDS011;28937;51.160;4.146;2023-11-19T01:25:16;19.92;;;3.85;;
43345;SDS011;28937;51.160;4.146;2023-11-19T01:27:41;15.82;;;3.25;;
43345;SDS011;28937;51.160;4.146;2023-11-19T01:30:07;16.92;;;3.40;;
43345;SDS011;28937;51.160;4.146;2023-11-19T01:32:38;17.13;;;3.80;;
43345;SDS011;28937;51.160;4.146;2023-11-19T01:35:05;18.90;;;4.10;;
43345;SDS011;28937;51.160;4.146;2023-11-19T01:37:31;13.57;;;3.35;;
43345;SDS011;28937;51.160;4.146;2023-11-19T01:39:57;15.45;;;3.17;;
43345;SDS011;28937;51.160;4.146;2023-11-19T01:42:23;14.73;;;3.88;;
43345;SDS011;28937;51.160;4.146;2023-11-19T01:44:59;15.52;;;4.13;;
43345;SDS011;28937;51.160;4.146;2023-11-19T01:47:28;19.08;;;4.38;;
43345;SDS011;28937;51.160;4.146;2023-11-19T01:49:56;16.33;;;4.10;;
43345;SDS011;28937;51.160;4.146;2023-11-19T01:52:22;15.00;;;3.83;;
43345;SDS011;28937;51.160;4.146;2023-11-19T01:54:49;17.52;;;3.78;;
43345;SDS011;28937;51.160;4.146;2023-11-19T01:57:16;20.33;;;4.43;;
43345;SDS011;28937;51.160;4.146;2023-11-19T01:59:42;19.00;;;3.53;;
43345;SDS011;28937;51.160;4.146;2023-11-19T02:02:09;18.55;;;4.00;;
43345;SDS011;28937;51.160;4.146;2023-11-19T02:04:37;21.38;;;4.63;;
43345;SDS011;28937;51.160;4.146;2023-11-19T02:07:03;21.08;;;3.95;;
43345;SDS011;28937;51.160;4.146;2023-11-19T02:09:29;25.17;;;4.85;;
43345;SDS011;28937;51.160;4.146;2023-11-19T02:11:55;19.67;;;5.15;;
43345;SDS011;28937;51.160;4.146;2023-11-19T02:14:25;17.65;;;4.35;;
43345;SDS011;28937;51.160;4.146;2023-11-19T02:16:51;17.77;;;3.90;;
43345;SDS011;28937;51.160;4.146;2023-11-19T02:19:20;22.30;;;4.97;;
43345;SDS011;28937;51.160;4.146;2023-11-19T02:21:46;19.02;;;4.10;;
43345;SDS011;28937;51.160;4.146;2023-11-19T02:24:12;18.35;;;4.20;;
43345;SDS011;28937;51.160;4.146;2023-11-19T02:29:27;20.52;;;5.03;;
43345;SDS011;28937;51.160;4.146;2023-11-19T02:31:52;26.23;;;4.85;;
43345;SDS011;28937;51.160;4.146;2023-11-19T02:34:20;18.95;;;4.35;;
43345;SDS011;28937;51.160;4.146;2023-11-19T02:36:47;21.80;;;4.50;;
43345;SDS011;28937;51.160;4.146;2023-11-19T02:39:12;22.20;;;4.72;;
43345;SDS011;28937;51.160;4.146;2023-11-19T02:41:38;22.55;;;5.05;;
43345;SDS011;28937;51.160;4.146;2023-11-19T02:44:07;17.92;;;5.13;;
43345;SDS011;28937;51.160;4.146;2023-11-19T02:46:33;20.83;;;5.10;;
43345;SDS011;28937;51.160;4.146;2023-11-19T02:48:58;21.75;;;4.63;;
43345;SDS011;28937;51.160;4.146;2023-11-19T02:51:24;19.45;;;5.53;;
43345;SDS011;28937;51.160;4.146;2023-11-19T02:53:50;19.08;;;4.32;;
43345;SDS011;28937;51.160;4.146;2023-11-19T02:56:15;17.30;;;5.40;;
43345;SDS011;28937;51.160;4.146;2023-11-19T02:58:45;22.58;;;4.60;;
43345;SDS011;28937;51.160;4.146;2023-11-19T03:01:11;22.33;;;4.72;;
43345;SDS011;28937;51.160;4.146;2023-11-19T03:03:49;22.42;;;4.72;;
43345;SDS011;28937;51.160;4.146;2023-11-19T03:06:19;19.75;;;5.38;;
43345;SDS011;28937;51.160;4.146;2023-11-19T03:08:46;25.70;;;5.32;;
43345;SDS011;28937;51.160;4.146;2023-11-19T03:11:13;24.30;;;4.82;;
43345;SDS011;28937;51.160;4.146;2023-11-19T03:13:39;24.48;;;5.18;;
43345;SDS011;28937;51.160;4.146;2023-11-19T03:16:04;20.88;;;4.43;;
43345;SDS011;28937;51.160;4.146;2023-11-19T03:18:30;25.48;;;4.82;;
43345;SDS011;28937;51.160;4.146;2023-11-19T03:20:56;24.50;;;4.55;;
43345;SDS011;28937;51.160;4.146;2023-11-19T03:23:23;20.05;;;5.03;;
43345;SDS011;28937;51.160;4.146;2023-11-19T03:25:49;17.33;;;4.88;;
43345;SDS011;28937;51.160;4.146;2023-11-19T03:28:15;20.65;;;4.93;;
43345;SDS011;28937;51.160;4.146;2023-11-19T03:30:40;24.02;;;4.70;;
43345;SDS011;28937;51.160;4.146;2023-11-19T03:33:06;29.17;;;5.72;;
43345;SDS011;28937;51.160;4.146;2023-11-19T03:35:32;23.30;;;5.15;;
43345;SDS011;28937;51.160;4.146;2023-11-19T03:37:58;25.45;;;4.95;;
43345;SDS011;28937;51.160;4.146;2023-11-19T03:40:23;26.05;;;5.95;;
43345;SDS011;28937;51.160;4.146;2023-11-19T03:42:50;24.48;;;5.47;;
43345;SDS011;28937;51.160;4.146;2023-11-19T03:45:16;25.50;;;5.90;;
43345;SDS011;28937;51.160;4.146;2023-11-19T03:47:42;26.20;;;5.60;;
43345;SDS011;28937;51.160;4.146;2023-11-19T03:50:08;31.38;;;6.03;;
43345;SDS011;28937;51.160;4.146;2023-11-19T03:52:34;29.02;;;5.82;;
43345;SDS011;28937;51.160;4.146;2023-11-19T03:55:00;25.73;;;5.60;;
43345;SDS011;28937;51.160;4.146;2023-11-19T03:57:27;19.85;;;4.35;;
43345;SDS011;28937;51.160;4.146;2023-11-19T03:59:53;21.55;;;4.97;;
43345;SDS011;28937;51.160;4.146;2023-11-19T04:02:20;23.55;;;5.15;;
43345;SDS011;28937;51.160;4.146;2023-11-19T04:04:46;25.08;;;5.50;;
43345;SDS011;28937;51.160;4.146;2023-11-19T04:07:13;25.15;;;5.78;;
43345;SDS011;28937;51.160;4.146;2023-11-19T04:09:38;23.35;;;5.22;;
43345;SDS011;28937;51.160;4.146;2023-11-19T04:12:04;29.10;;;6.35;;
43345;SDS011;28937;51.160;4.146;2023-11-19T04:14:30;26.05;;;5.18;;
43345;SDS011;28937;51.160;4.146;2023-11-19T04:16:56;28.63;;;6.13;;
43345;SDS011;28937;51.160;4.146;2023-11-19T04:19:21;22.38;;;5.68;;
43345;SDS011;28937;51.160;4.146;2023-11-19T04:21:47;23.90;;;4.80;;
43345;SDS011;28937;51.160;4.146;2023-11-19T04:24:13;24.05;;;5.38;;
43345;SDS011;28937;51.160;4.146;2023-11-19T04:26:45;30.83;;;5.57;;
43345;SDS011;28937;51.160;4.146;2023-11-19T04:31:38;30.80;;;6.57;;
43345;SDS011;28937;51.160;4.146;2023-11-19T04:34:04;19.50;;;5.20;;
43345;SDS011;28937;51.160;4.146;2023-11-19T04:36:31;27.50;;;6.53;;
43345;SDS011;28937;51.160;4.146;2023-11-19T04:38:58;26.60;;;5.47;;
43345;SDS011;28937;51.160;4.146;2023-11-19T04:41:24;31.92;;;7.97;;
43345;SDS011;28937;51.160;4.146;2023-11-19T04:43:50;23.27;;;5.70;;
43345;SDS011;28937;51.160;4.146;2023-11-19T04:46:16;26.75;;;6.32;;
43345;SDS011;28937;51.160;4.146;2023-11-19T04:48:42;26.13;;;6.07;;
43345;SDS011;28937;51.160;4.146;2023-11-19T04:51:07;29.75;;;6.15;;
43345;SDS011;28937;51.160;4.146;2023-11-19T04:53:36;27.95;;;5.63;;
43345;SDS011;28937;51.160;4.146;2023-11-19T04:56:07;26.88;;;5.57;;
43345;SDS011;28937;51.160;4.146;2023-11-19T04:58:36;30.65;;;6.32;;
43345;SDS011;28937;51.160;4.146;2023-11-19T05:01:02;30.88;;;6.57;;
43345;SDS011;28937;51.160;4.146;2023-11-19T05:03:29;27.52;;;5.88;;
43345;SDS011;28937;51.160;4.146;2023-11-19T05:05:56;29.02;;;7.07;;
43345;SDS011;28937;51.160;4.146;2023-11-19T05:08:22;31.35;;;7.43;;
43345;SDS011;28937;51.160;4.146;2023-11-19T05:10:47;34.40;;;7.05;;
43345;SDS011;28937;51.160;4.146;2023-11-19T05:13:13;25.85;;;5.75;;
43345;SDS011;28937;51.160;4.146;2023-11-19T05:15:40;22.05;;;5.03;;
43345;SDS011;28937;51.160;4.146;2023-11-19T05:18:05;27.67;;;5.97;;
43345;SDS011;28937;51.160;4.146;2023-11-19T05:20:31;23.10;;;5.53;;
43345;SDS011;28937;51.160;4.146;2023-11-19T05:22:57;22.33;;;5.05;;
43345;SDS011;28937;51.160;4.146;2023-11-19T05:25:25;26.92;;;5.97;;
43345;SDS011;28937;51.160;4.146;2023-11-19T05:27:51;28.17;;;6.03;;
43345;SDS011;28937;51.160;4.146;2023-11-19T05:30:17;29.35;;;5.90;;
43345;SDS011;28937;51.160;4.146;2023-11-19T05:32:43;24.58;;;7.03;;
43345;SDS011;28937;51.160;4.146;2023-11-19T05:35:09;28.98;;;5.05;;
43345;SDS011;28937;51.160;4.146;2023-11-19T05:37:34;32.15;;;6.63;;
43345;SDS011;28937;51.160;4.146;2023-11-19T05:40:00;24.83;;;5.32;;
43345;SDS011;28937;51.160;4.146;2023-11-19T05:42:28;29.13;;;7.15;;
43345;SDS011;28937;51.160;4.146;2023-11-19T05:44:54;19.70;;;5.13;;
43345;SDS011;28937;51.160;4.146;2023-11-19T05:47:19;26.50;;;5.85;;
43345;SDS011;28937;51.160;4.146;2023-11-19T05:49:45;25.92;;;6.25;;
43345;SDS011;28937;51.160;4.146;2023-11-19T05:52:11;30.30;;;5.82;;
43345;SDS011;28937;51.160;4.146;2023-11-19T05:54:37;28.20;;;5.97;;
43345;SDS011;28937;51.160;4.146;2023-11-19T05:57:06;31.60;;;7.03;;
43345;SDS011;28937;51.160;4.146;2023-11-19T05:59:35;34.95;;;6.95;;
43345;SDS011;28937;51.160;4.146;2023-11-19T06:02:01;30.13;;;6.10;;
43345;SDS011;28937;51.160;4.146;2023-11-19T06:04:27;23.55;;;5.85;;
43345;SDS011;28937;51.160;4.146;2023-11-19T06:06:53;30.98;;;6.55;;
43345;SDS011;28937;51.160;4.146;2023-11-19T06:09:22;29.45;;;6.20;;
43345;SDS011;28937;51.160;4.146;2023-11-19T06:11:51;29.13;;;6.32;;
43345;SDS011;28937;51.160;4.146;2023-11-19T06:14:17;27.92;;;6.68;;
43345;SDS011;28937;51.160;4.146;2023-11-19T06:16:43;27.63;;;5.80;;
43345;SDS011;28937;51.160;4.146;2023-11-19T06:19:09;30.08;;;7.13;;
43345;SDS011;28937;51.160;4.146;2023-11-19T06:21:36;29.45;;;6.07;;
43345;SDS011;28937;51.160;4.146;2023-11-19T06:24:02;29.40;;;7.13;;
43345;SDS011;28937;51.160;4.146;2023-11-19T06:26:28;32.08;;;6.10;;
43345;SDS011;28937;51.160;4.146;2023-11-19T06:28:54;26.75;;;7.00;;
43345;SDS011;28937;51.160;4.146;2023-11-19T06:31:19;25.80;;;6.30;;
43345;SDS011;28937;51.160;4.146;2023-11-19T06:33:46;26.08;;;6.13;;
43345;SDS011;28937;51.160;4.146;2023-11-19T06:36:14;27.30;;;5.97;;
43345;SDS011;28937;51.160;4.146;2023-11-19T06:38:41;24.30;;;5.20;;
43345;SDS011;28937;51.160;4.146;2023-11-19T06:41:08;31.10;;;6.55;;
43345;SDS011;28937;51.160;4.146;2023-11-19T06:43:36;24.42;;;5.72;;
43345;SDS011;28937;51.160;4.146;2023-11-19T06:46:02;34.75;;;7.28;;
43345;SDS011;28937;51.160;4.146;2023-11-19T06:48:31;32.53;;;6.70;;
43345;SDS011;28937;51.160;4.146;2023-11-19T06:50:57;35.35;;;6.82;;
43345;SDS011;28937;51.160;4.146;2023-11-19T06:53:23;31.27;;;6.82;;
43345;SDS011;28937;51.160;4.146;2023-11-19T06:55:49;26.70;;;6.50;;
43345;SDS011;28937;51.160;4.146;2023-11-19T06:58:15;26.30;;;5.30;;
43345;SDS011;28937;51.160;4.146;2023-11-19T07:00:40;26.95;;;7.43;;
43345;SDS011;28937;51.160;4.146;2023-11-19T07:03:06;28.00;;;6.15;;
43345;SDS011;28937;51.160;4.146;2023-11-19T07:05:35;28.52;;;7.18;;
43345;SDS011;28937;51.160;4.146;2023-11-19T07:08:03;32.67;;;7.32;;
43345;SDS011;28937;51.160;4.146;2023-11-19T07:10:29;30.48;;;6.50;;
43345;SDS011;28937;51.160;4.146;2023-11-19T07:12:55;26.58;;;6.10;;
43345;SDS011;28937;51.160;4.146;2023-11-19T07:15:21;23.65;;;6.07;;
43345;SDS011;28937;51.160;4.146;2023-11-19T07:17:46;29.42;;;6.28;;
43345;SDS011;28937;51.160;4.146;2023-11-19T07:20:13;26.15;;;6.45;;
43345;SDS011;28937;51.160;4.146;2023-11-19T07:22:42;24.50;;;5.95;;
43345;SDS011;28937;51.160;4.146;2023-11-19T07:25:12;28.23;;;6.63;;
43345;SDS011;28937;51.160;4.146;2023-11-19T07:27:38;24.92;;;5.63;;
43345;SDS011;28937;51.160;4.146;2023-11-19T07:30:04;30.45;;;6.55;;
43345;SDS011;28937;51.160;4.146;2023-11-19T07:32:32;30.00;;;6.28;;
43345;SDS011;28937;51.160;4.146;2023-11-19T07:34:58;27.88;;;6.63;;
43345;SDS011;28937;51.160;4.146;2023-11-19T07:37:24;29.17;;;6.38;;
43345;SDS011;28937;51.160;4.146;2023-11-19T07:39:50;28.73;;;6.47;;
43345;SDS011;28937;51.160;4.146;2023-11-19T07:42:15;28.70;;;6.40;;
43345;SDS011;28937;51.160;4.146;2023-11-19T07:44:41;29.20;;;5.72;;
43345;SDS011;28937;51.160;4.146;2023-11-19T07:47:08;26.85;;;5.82;;
43345;SDS011;28937;51.160;4.146;2023-11-19T07:49:33;25.15;;;5.93;;
43345;SDS011;28937;51.160;4.146;2023-11-19T07:51:59;22.80;;;5.95;;
43345;SDS011;28937;51.160;4.146;2023-11-19T07:54:25;22.63;;;5.78;;
43345;SDS011;28937;51.160;4.146;2023-11-19T07:56:51;23.40;;;4.82;;
43345;SDS011;28937;51.160;4.146;2023-11-19T07:59:17;25.73;;;5.70;;
43345;SDS011;28937;51.160;4.146;2023-11-19T08:01:46;28.02;;;6.28;;
43345;SDS011;28937;51.160;4.146;2023-11-19T08:04:11;25.42;;;6.05;;
43345;SDS011;28937;51.160;4.146;2023-11-19T08:06:37;24.88;;;5.25;;
43345;SDS011;28937;51.160;4.146;2023-11-19T08:09:03;26.95;;;6.65;;
43345;SDS011;28937;51.160;4.146;2023-11-19T08:11:29;23.13;;;6.28;;
43345;SDS011;28937;51.160;4.146;2023-11-19T08:13:54;30.10;;;6.88;;
43345;SDS011;28937;51.160;4.146;2023-11-19T08:16:20;26.83;;;5.82;;
43345;SDS011;28937;51.160;4.146;2023-11-19T08:18:46;30.02;;;6.45;;
43345;SDS011;28937;51.160;4.146;2023-11-19T08:21:11;29.15;;;6.25;;
43345;SDS011;28937;51.160;4.146;2023-11-19T08:23:38;45.58;;;16.65;;
43345;SDS011;28937;51.160;4.146;2023-11-19T08:26:04;45.72;;;19.27;;
43345;SDS011;28937;51.160;4.146;2023-11-19T08:28:30;45.97;;;15.82;;
43345;SDS011;28937;51.160;4.146;2023-11-19T08:30:56;33.63;;;8.25;;
43345;SDS011;28937;51.160;4.146;2023-11-19T08:33:23;34.00;;;6.90;;
43345;SDS011;28937;51.160;4.146;2023-11-19T08:35:49;58.92;;;19.92;;
43345;SDS011;28937;51.160;4.146;2023-11-19T08:38:15;39.50;;;10.43;;
43345;SDS011;28937;51.160;4.146;2023-11-19T08:40:40;28.85;;;8.48;;
43345;SDS011;28937;51.160;4.146;2023-11-19T08:43:06;40.70;;;14.38;;
43345;SDS011;28937;51.160;4.146;2023-11-19T08:45:32;41.92;;;15.98;;
43345;SDS011;28937;51.160;4.146;2023-11-19T08:47:57;45.35;;;15.95;;
43345;SDS011;28937;51.160;4.146;2023-11-19T08:50:23;45.92;;;15.25;;
43345;SDS011;28937;51.160;4.146;2023-11-19T08:52:49;38.28;;;10.88;;
43345;SDS011;28937;51.160;4.146;2023-11-19T08:55:14;43.75;;;14.05;;
43345;SDS011;28937;51.160;4.146;2023-11-19T08:57:40;38.03;;;11.05;;
43345;SDS011;28937;51.160;4.146;2023-11-19T09:00:06;35.85;;;11.63;;
43345;SDS011;28937;51.160;4.146;2023-11-19T09:02:33;33.42;;;8.95;;
43345;SDS011;28937;51.160;4.146;2023-11-19T09:05:00;38.53;;;11.57;;
43345;SDS011;28937;51.160;4.146;2023-11-19T09:07:26;30.70;;;10.20;;
43345;SDS011;28937;51.160;4.146;2023-11-19T09:09:52;35.45;;;9.95;;
43345;SDS011;28937;51.160;4.146;2023-11-19T09:12:18;30.73;;;11.02;;
43345;SDS011;28937;51.160;4.146;2023-11-19T09:14:43;33.80;;;10.15;;
43345;SDS011;28937;51.160;4.146;2023-11-19T09:17:10;33.08;;;10.38;;
43345;SDS011;28937;51.160;4.146;2023-11-19T09:19:36;38.83;;;9.95;;
43345;SDS011;28937;51.160;4.146;2023-11-19T09:22:02;34.95;;;8.10;;
43345;SDS011;28937;51.160;4.146;2023-11-19T09:24:28;30.83;;;6.90;;
43345;SDS011;28937;51.160;4.146;2023-11-19T09:26:54;23.42;;;6.55;;
43345;SDS011;28937;51.160;4.146;2023-11-19T09:29:21;33.65;;;7.15;;
43345;SDS011;28937;51.160;4.146;2023-11-19T09:31:47;31.55;;;6.95;;
43345;SDS011;28937;51.160;4.146;2023-11-19T09:34:12;27.92;;;6.45;;
43345;SDS011;28937;51.160;4.146;2023-11-19T09:36:38;30.60;;;7.07;;
43345;SDS011;28937;51.160;4.146;2023-11-19T09:39:08;32.55;;;7.38;;
43345;SDS011;28937;51.160;4.146;2023-11-19T09:41:34;28.20;;;6.32;;
43345;SDS011;28937;51.160;4.146;2023-11-19T09:44:00;25.65;;;6.65;;
43345;SDS011;28937;51.160;4.146;2023-11-19T09:46:26;25.63;;;6.43;;
43345;SDS011;28937;51.160;4.146;2023-11-19T09:48:52;27.83;;;5.75;;
43345;SDS011;28937;51.160;4.146;2023-11-19T09:51:21;27.65;;;6.57;;
43345;SDS011;28937;51.160;4.146;2023-11-19T09:53:47;25.35;;;7.30;;
43345;SDS011;28937;51.160;4.146;2023-11-19T09:56:13;33.38;;;7.22;;
43345;SDS011;28937;51.160;4.146;2023-11-19T09:58:39;27.25;;;6.40;;
43345;SDS011;28937;51.160;4.146;2023-11-19T10:01:05;25.95;;;6.35;;
43345;SDS011;28937;51.160;4.146;2023-11-19T10:03:35;27.20;;;7.28;;
43345;SDS011;28937;51.160;4.146;2023-11-19T10:06:09;23.27;;;5.53;;
43345;SDS011;28937;51.160;4.146;2023-11-19T10:08:38;21.88;;;5.60;;
43345;SDS011;28937;51.160;4.146;2023-11-19T10:11:10;19.08;;;6.25;;
43345;SDS011;28937;51.160;4.146;2023-11-19T10:13:37;24.42;;;5.13;;
43345;SDS011;28937;51.160;4.146;2023-11-19T10:16:04;25.83;;;5.50;;
43345;SDS011;28937;51.160;4.146;2023-11-19T10:18:34;19.52;;;5.55;;
43345;SDS011;28937;51.160;4.146;2023-11-19T10:21:06;28.02;;;6.75;;
43345;SDS011;28937;51.160;4.146;2023-11-19T10:23:54;27.85;;;6.50;;
43345;SDS011;28937;51.160;4.146;2023-11-19T10:26:25;26.88;;;5.88;;
43345;SDS011;28937;51.160;4.146;2023-11-19T10:28:51;22.80;;;5.60;;
43345;SDS011;28937;51.160;4.146;2023-11-19T10:31:18;24.58;;;5.97;;
43345;SDS011;28937;51.160;4.146;2023-11-19T10:33:50;21.77;;;5.70;;
43345;SDS011;28937;51.160;4.146;2023-11-19T10:36:17;19.52;;;5.05;;
43345;SDS011;28937;51.160;4.146;2023-11-19T10:38:52;24.17;;;5.45;;
43345;SDS011;28937;51.160;4.146;2023-11-19T10:41:28;21.25;;;5.38;;
43345;SDS011;28937;51.160;4.146;2023-11-19T10:43:54;20.50;;;5.60;;
43345;SDS011;28937;51.160;4.146;2023-11-19T10:46:20;21.67;;;5.50;;
43345;SDS011;28937;51.160;4.146;2023-11-19T10:48:48;22.33;;;4.88;;
43345;SDS011;28937;51.160;4.146;2023-11-19T10:51:14;24.80;;;5.78;;
43345;SDS011;28937;51.160;4.146;2023-11-19T10:53:49;22.60;;;4.63;;
43345;SDS011;28937;51.160;4.146;2023-11-19T10:56:18;24.15;;;6.22;;
43345;SDS011;28937;51.160;4.146;2023-11-19T10:58:50;18.80;;;4.82;;
43345;SDS011;28937;51.160;4.146;2023-11-19T11:01:20;24.13;;;5.78;;
43345;SDS011;28937;51.160;4.146;2023-11-19T11:03:49;28.63;;;5.93;;
43345;SDS011;28937;51.160;4.146;2023-11-19T11:06:16;22.38;;;5.95;;
43345;SDS011;28937;51.160;4.146;2023-11-19T11:08:43;25.15;;;5.68;;
43345;SDS011;28937;51.160;4.146;2023-11-19T11:11:11;26.92;;;5.80;;
43345;SDS011;28937;51.160;4.146;2023-11-19T11:13:46;21.63;;;5.30;;
43345;SDS011;28937;51.160;4.146;2023-11-19T11:16:14;29.30;;;6.15;;
43345;SDS011;28937;51.160;4.146;2023-11-19T11:18:44;23.70;;;5.63;;
43345;SDS011;28937;51.160;4.146;2023-11-19T11:21:15;27.83;;;5.93;;
43345;SDS011;28937;51.160;4.146;2023-11-19T11:37:37;23.65;;;5.53;;
43345;SDS011;28937;51.160;4.146;2023-11-19T11:40:16;26.73;;;6.20;;
43345;SDS011;28937;51.160;4.146;2023-11-19T11:42:43;28.85;;;7.55;;
43345;SDS011;28937;51.160;4.146;2023-11-19T11:50:12;31.02;;;7.90;;
43345;SDS011;28937;51.160;4.146;2023-11-19T11:55:29;29.98;;;9.07;;
43345;SDS011;28937;51.160;4.146;2023-11-19T11:58:01;27.42;;;8.15;;
43345;SDS011;28937;51.160;4.146;2023-11-19T12:00:31;32.85;;;7.15;;
43345;SDS011;28937;51.160;4.146;2023-11-19T12:03:01;29.65;;;6.90;;
43345;SDS011;28937;51.160;4.146;2023-11-19T12:05:29;22.00;;;6.57;;
43345;SDS011;28937;51.160;4.146;2023-11-19T12:07:55;26.00;;;7.45;;
43345;SDS011;28937;51.160;4.146;2023-11-19T12:10:24;22.92;;;5.78;;
43345;SDS011;28937;51.160;4.146;2023-11-19T12:12:52;24.00;;;5.93;;
43345;SDS011;28937;51.160;4.146;2023-11-19T12:15:18;28.15;;;6.07;;
43345;SDS011;28937;51.160;4.146;2023-11-19T12:17:50;21.47;;;5.00;;
43345;SDS011;28937;51.160;4.146;2023-11-19T12:20:19;30.10;;;5.93;;
43345;SDS011;28937;51.160;4.146;2023-11-19T12:22:47;19.17;;;5.55;;
43345;SDS011;28937;51.160;4.146;2023-11-19T12:25:14;24.52;;;5.72;;
43345;SDS011;28937;51.160;4.146;2023-11-19T12:27:49;20.70;;;5.32;;
43345;SDS011;28937;51.160;4.146;2023-11-19T12:30:22;24.27;;;5.70;;
43345;SDS011;28937;51.160;4.146;2023-11-19T12:32:52;20.48;;;4.95;;
43345;SDS011;28937;51.160;4.146;2023-11-19T12:35:23;22.05;;;5.20;;
43345;SDS011;28937;51.160;4.146;2023-11-19T12:37:50;20.98;;;4.88;;
43345;SDS011;28937;51.160;4.146;2023-11-19T12:40:17;21.02;;;4.72;;
43345;SDS011;28937;51.160;4.146;2023-11-19T12:42:45;20.15;;;4.38;;
43345;SDS011;28937;51.160;4.146;2023-11-19T12:45:11;19.38;;;4.55;;
43345;SDS011;28937;51.160;4.146;2023-11-19T12:47:38;22.48;;;4.72;;
43345;SDS011;28937;51.160;4.146;2023-11-19T12:50:05;16.40;;;4.40;;
43345;SDS011;28937;51.160;4.146;2023-11-19T12:52:33;18.92;;;4.93;;
43345;SDS011;28937;51.160;4.146;2023-11-19T12:55:23;18.75;;;4.82;;
43345;SDS011;28937;51.160;4.146;2023-11-19T12:57:51;22.70;;;5.03;;
43345;SDS011;28937;51.160;4.146;2023-11-19T13:00:20;21.50;;;5.93;;
43345;SDS011;28937;51.160;4.146;2023-11-19T13:02:53;23.20;;;5.07;;
43345;SDS011;28937;51.160;4.146;2023-11-19T13:05:38;22.95;;;5.65;;
43345;SDS011;28937;51.160;4.146;2023-11-19T13:08:06;25.52;;;5.60;;
43345;SDS011;28937;51.160;4.146;2023-11-19T13:10:54;28.40;;;6.15;;
43345;SDS011;28937;51.160;4.146;2023-11-19T13:13:19;26.65;;;6.20;;
43345;SDS011;28937;51.160;4.146;2023-11-19T13:15:45;25.15;;;5.85;;
43345;SDS011;28937;51.160;4.146;2023-11-19T13:18:11;22.40;;;5.53;;
43345;SDS011;28937;51.160;4.146;2023-11-19T13:20:37;27.63;;;5.57;;
43345;SDS011;28937;51.160;4.146;2023-11-19T13:23:04;25.90;;;5.50;;
43345;SDS011;28937;51.160;4.146;2023-11-19T13:25:32;26.77;;;5.60;;
43345;SDS011;28937;51.160;4.146;2023-11-19T13:27:58;20.90;;;4.75;;
43345;SDS011;28937;51.160;4.146;2023-11-19T13:30:24;26.27;;;6.20;;
43345;SDS011;28937;51.160;4.146;2023-11-19T13:32:51;25.45;;;5.97;;
43345;SDS011;28937;51.160;4.146;2023-11-19T13:35:17;24.15;;;5.28;;
43345;SDS011;28937;51.160;4.146;2023-11-19T13:37:43;23.23;;;5.88;;
43345;SDS011;28937;51.160;4.146;2023-11-19T13:40:10;19.27;;;4.43;;
43345;SDS011;28937;51.160;4.146;2023-11-19T13:42:40;21.35;;;5.20;;
43345;SDS011;28937;51.160;4.146;2023-11-19T13:45:13;24.77;;;6.05;;
43345;SDS011;28937;51.160;4.146;2023-11-19T13:47:40;28.48;;;6.28;;
43345;SDS011;28937;51.160;4.146;2023-11-19T13:50:08;23.15;;;5.55;;
43345;SDS011;28937;51.160;4.146;2023-11-19T13:52:41;24.58;;;5.30;;
43345;SDS011;28937;51.160;4.146;2023-11-19T13:55:09;25.10;;;5.43;;
43345;SDS011;28937;51.160;4.146;2023-11-19T13:57:38;25.15;;;6.55;;
43345;SDS011;28937;51.160;4.146;2023-11-19T14:00:05;25.23;;;5.50;;
43345;SDS011;28937;51.160;4.146;2023-11-19T14:02:36;19.65;;;4.57;;
43345;SDS011;28937;51.160;4.146;2023-11-19T14:05:01;23.08;;;5.35;;
43345;SDS011;28937;51.160;4.146;2023-11-19T14:07:27;20.85;;;4.68;;
43345;SDS011;28937;51.160;4.146;2023-11-19T14:09:53;24.25;;;5.65;;
43345;SDS011;28937;51.160;4.146;2023-11-19T14:12:19;18.58;;;4.68;;
43345;SDS011;28937;51.160;4.146;2023-11-19T14:14:45;22.95;;;4.75;;
43345;SDS011;28937;51.160;4.146;2023-11-19T14:17:11;24.95;;;5.40;;
43345;SDS011;28937;51.160;4.146;2023-11-19T14:19:37;19.48;;;4.18;;
43345;SDS011;28937;51.160;4.146;2023-11-19T14:22:04;27.10;;;5.78;;
43345;SDS011;28937;51.160;4.146;2023-11-19T14:24:30;21.52;;;5.45;;
43345;SDS011;28937;51.160;4.146;2023-11-19T14:26:56;23.10;;;5.28;;
43345;SDS011;28937;51.160;4.146;2023-11-19T14:29:24;20.33;;;5.45;;
43345;SDS011;28937;51.160;4.146;2023-11-19T14:31:51;23.88;;;5.82;;
43345;SDS011;28937;51.160;4.146;2023-11-19T14:34:19;31.08;;;5.72;;
43345;SDS011;28937;51.160;4.146;2023-11-19T14:36:45;17.48;;;4.20;;
43345;SDS011;28937;51.160;4.146;2023-11-19T14:39:10;20.05;;;4.43;;
43345;SDS011;28937;51.160;4.146;2023-11-19T14:41:36;20.40;;;4.28;;
43345;SDS011;28937;51.160;4.146;2023-11-19T14:44:02;14.75;;;3.58;;
43345;SDS011;28937;51.160;4.146;2023-11-19T14:46:28;18.58;;;5.53;;
43345;SDS011;28937;51.160;4.146;2023-11-19T14:48:55;22.38;;;5.25;;
43345;SDS011;28937;51.160;4.146;2023-11-19T14:51:20;17.88;;;4.07;;
43345;SDS011;28937;51.160;4.146;2023-11-19T14:53:46;21.38;;;4.65;;
43345;SDS011;28937;51.160;4.146;2023-11-19T14:56:13;18.10;;;4.97;;
43345;SDS011;28937;51.160;4.146;2023-11-19T14:58:39;15.43;;;4.05;;
43345;SDS011;28937;51.160;4.146;2023-11-19T15:01:05;18.42;;;4.70;;